createdAt,value
2023-01-19T00:04:45.469Z,5.2
2023-01-19T00:10:28.782Z,4.9
2023-01-19T00:16:13.186Z,5.3
2023-01-19T00:21:56.447Z,5.8
2023-01-19T00:27:39.725Z,5.2
2023-01-19T00:33:22.961Z,5.6
2023-01-19T00:39:06.142Z,5.4
2023-01-19T00:44:49.450Z,5.2
2023-01-19T00:50:33.281Z,5.7
2023-01-19T00:56:16.483Z,5.5
2023-01-19T01:02:00.377Z,5.8
2023-01-19T01:07:44.358Z,5.5
2023-01-19T01:13:30.895Z,5.8
2023-01-19T01:19:14.683Z,5.9
2023-01-19T01:24:58.569Z,5.8
2023-01-19T01:30:42.185Z,5.8
2023-01-19T01:36:25.356Z,5.7
2023-01-19T01:42:15.484Z,5.4
2023-01-19T01:48:00.221Z,6.3
2023-01-19T01:53:45.044Z,5.7
2023-01-19T01:59:30.645Z,5.9
2023-01-19T02:05:17.733Z,6.1
2023-01-19T02:11:02.393Z,6.2
2023-01-19T02:16:45.819Z,6.2
2023-01-19T02:22:33.739Z,6
2023-01-19T02:28:17.149Z,6.5
2023-01-19T02:34:01.462Z,6.1
2023-01-19T02:39:46.814Z,6.4
2023-01-19T02:45:30.147Z,6.4
2023-01-19T02:51:15.881Z,6.5
2023-01-19T02:57:04.135Z,6.5
2023-01-19T03:02:52.294Z,6.4
2023-01-19T03:08:41.583Z,6.2
2023-01-19T03:14:28.229Z,6.5
2023-01-19T03:20:13.187Z,6.6
2023-01-19T03:25:57.603Z,6.8
2023-01-19T03:31:42.316Z,6.6
2023-01-19T03:37:27.613Z,7.3
2023-01-19T03:43:11.484Z,6.7
2023-01-19T03:48:55.176Z,6.4
2023-01-19T03:54:38.834Z,6.8
2023-01-19T04:00:22.352Z,6.9
2023-01-19T04:06:05.751Z,6.2
2023-01-19T04:11:49.095Z,6.5
2023-01-19T04:17:32.801Z,6.7
2023-01-19T04:23:16.041Z,6.7
2023-01-19T04:28:59.425Z,6.3
2023-01-19T04:34:42.734Z,6.8
2023-01-19T04:40:26.014Z,6.4
2023-01-19T04:46:09.350Z,6.3
2023-01-19T04:51:54.012Z,6.5
2023-01-19T04:57:37.363Z,6.5
2023-01-19T05:03:21.171Z,6
2023-01-19T05:09:04.848Z,6.4
2023-01-19T05:14:48.175Z,6.3
2023-01-19T05:20:31.613Z,7
2023-01-19T05:26:15.013Z,6
2023-01-19T05:31:58.778Z,6.5
2023-01-19T05:37:42.167Z,7
2023-01-19T05:43:25.522Z,6.3
2023-01-19T05:49:09.165Z,6.9
2023-01-19T05:54:52.668Z,7
2023-01-19T06:00:35.906Z,6.8
2023-01-19T06:06:19.303Z,6.6
2023-01-19T06:12:02.530Z,6.5
2023-01-19T06:17:45.816Z,7
2023-01-19T06:23:31.654Z,6.6
2023-01-19T06:29:15.154Z,7.4
2023-01-19T06:34:58.443Z,7.1
2023-01-19T06:40:41.771Z,6.9
2023-01-19T06:46:25.070Z,6.8
2023-01-19T06:52:08.333Z,6.8
2023-01-19T06:57:56.495Z,7.1
2023-01-19T07:03:39.813Z,6.6
2023-01-19T07:09:26.609Z,7
2023-01-19T07:15:12.113Z,7.6
2023-01-19T07:20:55.285Z,7.5
2023-01-19T07:26:38.366Z,6.5
2023-01-19T07:32:21.674Z,6.9
2023-01-19T07:38:05.508Z,7
2023-01-19T07:43:48.790Z,7.1
2023-01-19T07:49:31.993Z,7
2023-01-19T07:55:15.679Z,7
2023-01-19T08:00:59.673Z,7.5
2023-01-19T08:06:46.797Z,7.4
2023-01-19T08:12:30.430Z,7.7
2023-01-19T08:18:13.796Z,7.2
2023-01-19T08:23:58.057Z,7.1
2023-01-19T08:29:41.553Z,7.5
2023-01-19T08:35:24.915Z,6.8
2023-01-19T08:41:08.364Z,7.1
2023-01-19T08:46:52.565Z,7.4
2023-01-19T08:52:36.678Z,7
2023-01-19T08:58:19.834Z,6.9
2023-01-19T09:04:06.344Z,6.8
2023-01-19T09:09:50.748Z,7.9
2023-01-19T09:15:34.558Z,7.6
2023-01-19T09:21:18.085Z,6.8
2023-01-19T09:27:01.289Z,7
2023-01-19T09:32:44.758Z,7.2
2023-01-19T09:38:27.909Z,6.8
2023-01-19T09:44:15.725Z,6.9
2023-01-19T09:50:03.172Z,7
2023-01-19T09:55:46.545Z,6.6
2023-01-19T10:01:37.160Z,7.1
2023-01-19T10:07:26.826Z,6.7
2023-01-19T10:13:18.975Z,6.4
2023-01-19T10:19:03.844Z,7.1
2023-01-19T10:24:48.359Z,6.3
2023-01-19T10:30:32.738Z,5.9
2023-01-19T10:36:21.889Z,6.2
2023-01-19T10:42:07.953Z,6.3
2023-01-19T10:47:51.362Z,7
2023-01-19T10:53:35.036Z,5.9
2023-01-19T10:59:33.870Z,6.4
2023-01-19T11:05:27.968Z,5.9
2023-01-19T11:11:11.414Z,5.8
2023-01-19T11:16:56.918Z,6.3
2023-01-19T11:22:40.284Z,5.8
2023-01-19T11:28:28.621Z,5.8
2023-01-19T11:34:16.816Z,5.9
2023-01-19T11:40:01.751Z,5.6
2023-01-19T11:45:45.937Z,5.4
2023-01-19T11:51:31.678Z,5.8
2023-01-19T11:57:17.571Z,5.7
2023-01-19T12:03:03.286Z,5.2
2023-01-19T12:08:48.581Z,5.3
2023-01-19T12:14:36.252Z,5.2
2023-01-19T12:20:26.398Z,4.6
2023-01-19T12:26:16.821Z,5.2
2023-01-19T12:32:11.297Z,4.9
2023-01-19T12:37:54.768Z,4.8
2023-01-19T12:43:38.116Z,5
2023-01-19T12:49:25.197Z,5
2023-01-19T12:55:14.703Z,4.7
2023-01-19T13:01:11.144Z,4.5
2023-01-19T13:07:06.428Z,4.7
2023-01-19T13:13:00.455Z,4.9
2023-01-19T13:18:44.131Z,4.5
2023-01-19T13:24:33.114Z,4.4
2023-01-19T13:30:18.862Z,4.5
2023-01-19T13:36:02.306Z,4.7
2023-01-19T13:41:46.036Z,4.5
2023-01-19T13:47:33.201Z,4.3
2023-01-19T13:53:22.862Z,4.3
2023-01-19T13:59:07.884Z,4.3
2023-01-19T14:04:52.191Z,4.4
2023-01-19T14:10:36.190Z,4.5
2023-01-19T14:16:19.778Z,4
2023-01-19T14:22:04.195Z,4.4
2023-01-19T14:27:47.534Z,4.7
2023-01-19T14:33:42.212Z,4.7
2023-01-19T14:39:26.825Z,4.3
2023-01-19T14:45:17.824Z,4.3
2023-01-19T14:51:05.937Z,4.2
2023-01-19T14:56:49.071Z,4.2
2023-01-19T15:02:32.531Z,4.2
2023-01-19T15:08:18.373Z,4.2
2023-01-19T15:14:01.848Z,4.4
2023-01-19T15:19:45.440Z,4.2
2023-01-19T15:25:28.716Z,4.3
2023-01-19T15:31:15.131Z,4.6
2023-01-19T15:36:58.478Z,4.1
2023-01-19T15:42:41.802Z,4.6
2023-01-19T15:48:25.223Z,4.3
2023-01-19T15:54:12.106Z,4.3
2023-01-19T15:59:55.405Z,4.1
2023-01-19T16:05:44.739Z,4
2023-01-19T16:11:28.157Z,4.4
2023-01-19T16:17:11.434Z,4.3
2023-01-19T16:23:16.761Z,4.1
2023-01-19T16:28:56.892Z,4.3
2023-01-19T16:34:40.101Z,4.4
2023-01-19T16:40:23.409Z,4.1
2023-01-19T16:46:07.461Z,4.8
2023-01-19T16:51:51.112Z,4.5
2023-01-19T16:57:34.300Z,4.6
2023-01-19T17:03:17.711Z,4.7
2023-01-19T17:09:01.312Z,4.5
2023-01-19T17:14:44.668Z,4.8
2023-01-19T17:20:28.055Z,4.8
2023-01-19T17:26:12.208Z,4.5
2023-01-19T17:31:55.452Z,5.1
2023-01-19T17:37:38.875Z,5
2023-01-19T17:43:22.262Z,4.4
2023-01-19T17:49:06.949Z,5.3
2023-01-19T17:54:50.269Z,5.1
2023-01-19T18:00:33.629Z,5.1
2023-01-19T18:06:17.486Z,5.4
2023-01-19T18:12:00.672Z,5.5
2023-01-19T18:17:44.373Z,5.2
2023-01-19T18:23:27.806Z,5
2023-01-19T18:29:11.407Z,5.7
2023-01-19T18:34:55.168Z,6
2023-01-19T18:40:38.665Z,5.9
2023-01-19T18:46:22.012Z,5.9
2023-01-19T18:52:05.566Z,6.4
2023-01-19T18:57:48.854Z,6.4
2023-01-19T19:03:32.311Z,6.2
2023-01-19T19:09:15.910Z,6.2
2023-01-19T19:15:04.426Z,6.2
2023-01-19T19:20:48.109Z,6.6
2023-01-19T19:26:31.161Z,6.4
2023-01-19T19:32:14.570Z,6.9
2023-01-19T19:37:58.009Z,6.5
2023-01-19T19:43:41.939Z,7.1
2023-01-19T19:49:25.195Z,6.9
2023-01-19T19:55:09.701Z,7.1
2023-01-19T20:00:53.467Z,7.5
2023-01-19T20:06:37.307Z,7.8
2023-01-19T20:12:20.468Z,7.8
2023-01-19T20:18:03.652Z,7.9
2023-01-19T20:23:47.471Z,7.3
2023-01-19T20:29:30.830Z,8.2
2023-01-19T20:35:15.073Z,8.3
2023-01-19T20:40:58.780Z,8.4
2023-01-19T20:46:42.213Z,8.6
2023-01-19T20:52:25.648Z,8.4
2023-01-19T20:58:09.502Z,8.1
2023-01-19T21:03:53.456Z,7.8
2023-01-19T21:09:37.283Z,8.7
2023-01-19T21:15:21.094Z,8.1
2023-01-19T21:21:04.925Z,8.3
2023-01-19T21:26:48.913Z,8.4
2023-01-19T21:32:32.281Z,8.5
2023-01-19T21:38:15.938Z,8.4
2023-01-19T21:43:59.335Z,8.4
2023-01-19T21:49:42.834Z,7.7
2023-01-19T21:55:26.416Z,7.7
2023-01-19T22:01:11.283Z,7.5
2023-01-19T22:06:54.926Z,7.7
2023-01-19T22:12:39.463Z,7.8
2023-01-19T22:18:22.851Z,7.5
2023-01-19T22:24:06.413Z,7.4
2023-01-19T22:29:50.225Z,7.7
2023-01-19T22:35:33.727Z,7.3
2023-01-19T22:41:19.255Z,7.5
2023-01-19T22:47:02.570Z,7.5
2023-01-19T22:52:45.783Z,7.2
2023-01-19T22:58:29.440Z,6.8
2023-01-19T23:04:14.281Z,6.8
2023-01-19T23:09:58.211Z,7
2023-01-19T23:15:42.695Z,7.3
2023-01-19T23:21:27.179Z,6.7
2023-01-19T23:27:10.308Z,7.1
2023-01-19T23:32:54.267Z,6.6
2023-01-19T23:38:38.000Z,6.7
2023-01-19T23:44:22.501Z,6.6
2023-01-19T23:50:07.094Z,7.2
2023-01-19T23:55:50.574Z,7.2
